Time;durP1;ratioP1;P1;durP2;ratioP2;P2;SDS_P1;SDS_P2;PMS_P1;PMS_P2;Temp;Humidity;BMP_temperature;BMP_pressure;BME280_temperature;BME280_humidity;BME280_pressure;Samples;Min_cycle;Max_cycle;Signal;HPM_P1;HPM_P2
2023/04/15 00:01:44;;;;;;;;;;;;;;;7.06;86.10;95244.81;5104812;28;19935;-88
2023/04/15 00:04:12;;;;;;;;;;;;;;;7.10;84.74;95254.00;5099971;28;19923;-88
2023/04/15 00:06:39;;;;;;;;;;;;;;;7.05;84.81;95248.53;5104996;28;19946;-88
2023/04/15 00:09:07;;;;;;;;;;;;;;;7.04;85.66;95249.59;5110464;28;19931;-88
2023/04/15 00:11:34;;;;;;;;;;;;;;;7.03;84.21;95243.41;5112689;28;19928;-88
2023/04/15 00:14:01;;;;;;;;;;;;;;;7.07;84.84;95246.41;5124809;27;20066;-88
2023/04/15 00:16:27;;;;;;;;;;;;;;;7.06;84.75;95244.81;5115664;28;19924;-87
2023/04/15 00:18:55;;;;;;;;;;;;;;;7.09;84.96;95233.59;5110926;28;20027;-87
2023/04/15 00:21:24;;;;;;;;;;;;;;;7.07;85.69;95249.09;5107525;28;19927;-87
2023/04/15 00:23:52;;;;;;;;;;;;;;;7.06;85.08;95245.59;5106218;28;19927;-88
2023/04/15 00:26:19;;;;;;;;;;;;;;;7.08;85.65;95245.38;5114229;28;20053;-88
2023/04/15 00:28:48;;;;;;;;;;;;;;;7.11;85.40;95245.72;5111919;28;19928;-87
2023/04/15 00:31:15;;;;;;;;;;;;;;;7.15;87.79;95243.38;5102533;28;19924;-88
2023/04/15 00:33:42;;;;;;;;;;;;;;;7.18;88.54;95242.91;5109504;28;19955;-88
2023/04/15 00:36:08;;;;;;;;;;;;;;;7.17;88.69;95243.97;5113031;28;19928;-88
2023/04/15 00:38:38;;;;;;;;;;;;;;;7.16;89.42;95245.00;5111712;28;19932;-88
2023/04/15 00:41:05;;;;;;;;;;;;;;;7.18;89.86;95245.59;5102051;28;19928;-88
2023/04/15 00:43:31;;;;;;;;;;;;;;;7.19;90.24;95244.53;5112926;28;19924;-88
2023/04/15 00:45:59;;;;;;;;;;;;;;;7.15;91.58;95238.81;5104860;28;20239;-87
2023/04/15 00:48:27;;;;;;;;;;;;;;;7.15;91.86;95238.00;5107713;28;19963;-87
2023/04/15 00:50:54;;;;;;;;;;;;;;;7.16;91.57;95239.63;5102659;28;19930;-88
2023/04/15 00:53:20;;;;;;;;;;;;;;;7.16;92.39;95242.31;5109926;28;19924;-88
2023/04/15 00:55:49;;;;;;;;;;;;;;;7.19;92.94;95233.81;5113645;28;19930;-88
2023/04/15 00:58:16;;;;;;;;;;;;;;;7.19;94.70;95233.81;5111179;28;19923;-87
2023/04/15 01:00:43;;;;;;;;;;;;;;;7.16;95.08;95237.78;5112937;28;19924;-88
2023/04/15 01:03:10;;;;;;;;;;;;;;;7.11;95.84;95239.53;5101249;28;19923;-88
2023/04/15 01:05:37;;;;;;;;;;;;;;;7.09;97.08;95255.06;5102436;28;19924;-87
2023/04/15 01:08:04;;;;;;;;;;;;;;;7.07;97.54;95251.78;5111651;28;19935;-88
2023/04/15 01:10:31;;;;;;;;;;;;;;;7.02;97.59;95252.50;5113519;28;19990;-88
2023/04/15 01:12:59;;;;;;;;;;;;;;;6.98;98.37;95251.31;5112754;28;19924;-88
2023/04/15 01:15:26;;;;;;;;;;;;;;;6.98;98.55;95251.31;5117790;27;19923;-87
2023/04/15 01:17:54;;;;;;;;;;;;;;;6.98;96.97;95253.19;5109701;28;19930;-88
2023/04/15 01:20:21;;;;;;;;;;;;;;;6.93;97.08;95256.59;5113430;28;19932;-87
2023/04/15 01:22:48;;;;;;;;;;;;;;;6.95;97.12;95256.34;5102576;28;20031;-87
2023/04/15 01:25:17;;;;;;;;;;;;;;;6.89;96.41;95260.00;5103635;28;19934;-87
2023/04/15 01:27:46;;;;;;;;;;;;;;;6.81;98.00;95256.56;5103594;28;19923;-88
2023/04/15 01:30:13;;;;;;;;;;;;;;;6.70;99.37;95260.09;5111454;28;19958;-87
2023/04/15 01:32:40;;;;;;;;;;;;;;;6.68;100.00;95259.50;5109121;28;19931;-88
2023/04/15 01:35:07;;;;;;;;;;;;;;;6.73;100.00;95261.47;5099006;28;19923;-88
2023/04/15 01:37:34;;;;;;;;;;;;;;;6.76;100.00;95261.84;5108642;28;19923;-87
2023/04/15 01:40:02;;;;;;;;;;;;;;;6.78;100.00;95262.44;5112341;28;19970;-88
2023/04/15 01:42:30;;;;;;;;;;;;;;;6.84;100.00;95258.81;5108015;28;19935;-88
2023/04/15 01:44:58;;;;;;;;;;;;;;;6.88;100.00;95267.22;5110718;28;19960;-87
2023/04/15 01:47:25;;;;;;;;;;;;;;;6.89;100.00;95263.47;5114573;27;19932;-88
2023/04/15 01:49:52;;;;;;;;;;;;;;;6.93;100.00;95266.50;5113767;28;19989;-87
2023/04/15 01:52:19;;;;;;;;;;;;;;;6.93;100.00;95266.50;5112839;28;19992;-88
2023/04/15 01:54:46;;;;;;;;;;;;;;;6.92;100.00;95276.41;5104394;28;19931;-88
2023/04/15 01:57:13;;;;;;;;;;;;;;;6.92;100.00;95275.59;5112920;28;19924;-87
2023/04/15 01:59:41;;;;;;;;;;;;;;;6.89;100.00;95276.09;5098706;28;20018;-88
2023/04/15 02:02:10;;;;;;;;;;;;;;;6.91;100.00;95272.09;5111754;28;19924;-87
2023/04/15 02:04:36;;;;;;;;;;;;;;;6.90;100.00;95277.69;5112372;28;19924;-87
2023/04/15 02:07:04;;;;;;;;;;;;;;;6.82;100.00;95271.63;5106881;28;19924;-88
2023/04/15 02:09:32;;;;;;;;;;;;;;;6.76;100.00;95263.69;5105437;28;19959;-87
2023/04/15 02:12:00;;;;;;;;;;;;;;;6.71;100.00;95267.09;5093805;28;19935;-87
2023/04/15 02:14:28;;;;;;;;;;;;;;;6.65;100.00;95265.31;5112814;28;19928;-88
2023/04/15 02:16:55;;;;;;;;;;;;;;;6.58;100.00;95269.16;5113671;28;19923;-87
2023/04/15 02:19:24;;;;;;;;;;;;;;;6.64;100.00;95271.72;5103711;28;20015;-87
2023/04/15 02:21:51;;;;;;;;;;;;;;;6.67;100.00;95268.59;5106821;28;19955;-87
2023/04/15 02:24:18;;;;;;;;;;;;;;;6.66;100.00;95266.97;5110539;28;19950;-88
2023/04/15 02:26:45;;;;;;;;;;;;;;;6.65;100.00;95276.03;5103153;28;20006;-88
2023/04/15 02:29:12;;;;;;;;;;;;;;;6.62;100.00;95273.84;5109141;28;19928;-87
2023/04/15 02:31:42;;;;;;;;;;;;;;;6.63;100.00;95278.16;5102301;28;20014;-87
2023/04/15 02:34:09;;;;;;;;;;;;;;;6.61;100.00;95271.41;5111757;28;19923;-88
2023/04/15 02:36:38;;;;;;;;;;;;;;;6.59;100.00;95270.81;5105946;28;19924;-87
2023/04/15 02:39:05;;;;;;;;;;;;;;;6.55;100.00;95270.44;5109200;28;19931;-88
2023/04/15 02:41:32;;;;;;;;;;;;;;;6.55;100.00;95270.44;5097724;28;19923;-88
2023/04/15 02:44:00;;;;;;;;;;;;;;;6.56;100.00;95271.25;5107500;28;19924;-87
2023/04/15 02:46:30;;;;;;;;;;;;;;;6.58;100.00;95274.53;5110241;28;19928;-88
2023/04/15 02:48:58;;;;;;;;;;;;;;;6.58;100.00;95274.53;5107463;28;19924;-87
2023/04/15 02:51:25;;;;;;;;;;;;;;;6.57;100.00;95273.72;5104980;28;19927;-87
2023/04/15 02:53:55;;;;;;;;;;;;;;;6.54;100.00;95273.38;5110863;28;19932;-87
2023/04/15 02:56:22;;;;;;;;;;;;;;;6.52;100.00;95270.91;5097033;28;19924;-87
2023/04/15 02:58:49;;;;;;;;;;;;;;;6.50;100.00;95278.38;5101203;28;19932;-87
2023/04/15 03:01:16;;;;;;;;;;;;;;;6.50;100.00;95272.19;5101007;28;19927;-87
2023/04/15 03:03:43;;;;;;;;;;;;;;;6.57;100.00;95281.75;5109967;28;19924;-88
2023/04/15 03:06:09;;;;;;;;;;;;;;;6.60;100.00;95284.00;5106041;28;19924;-88
2023/04/15 03:08:37;;;;;;;;;;;;;;;6.62;100.00;95281.91;5108968;28;19928;-87
2023/04/15 03:11:06;;;;;;;;;;;;;;;6.61;100.00;95285.63;5113964;28;19928;-88
2023/04/15 03:13:34;;;;;;;;;;;;;;;6.60;100.00;95284.00;5104706;28;20006;-88
2023/04/15 03:16:09;;;;;;;;;;;;;;;6.60;100.00;95273.25;5110997;28;19931;-88
2023/04/15 03:18:37;;;;;;;;;;;;;;;6.59;100.00;95285.03;5109657;28;19924;-88
2023/04/15 03:21:05;;;;;;;;;;;;;;;6.59;100.00;95282.34;5108175;28;19924;-87
2023/04/15 03:23:35;;;;;;;;;;;;;;;6.65;100.00;95288.66;5111905;28;19931;-88
2023/04/15 03:26:02;;;;;;;;;;;;;;;6.68;100.00;95280.16;5122236;27;19977;-88
2023/04/15 03:28:32;;;;;;;;;;;;;;;6.70;100.00;95273.50;5108365;28;19939;-88
2023/04/15 03:31:00;;;;;;;;;;;;;;;6.70;100.00;95272.69;5107536;28;20001;-88
2023/04/15 03:33:26;;;;;;;;;;;;;;;6.68;100.00;95270.22;5097441;28;20025;-87
2023/04/15 03:35:53;;;;;;;;;;;;;;;6.69;100.00;95277.22;5097058;28;19924;-88
2023/04/15 03:38:20;;;;;;;;;;;;;;;6.67;100.00;95279.31;5106508;28;20492;-87
2023/04/15 03:40:47;;;;;;;;;;;;;;;6.68;100.00;95275.59;5108078;28;19923;-87
2023/04/15 03:43:14;;;;;;;;;;;;;;;6.66;100.00;95272.31;5106384;28;19923;-88
2023/04/15 03:45:43;;;;;;;;;;;;;;;6.66;100.00;95277.69;5107317;28;19935;-88
2023/04/15 03:48:09;;;;;;;;;;;;;;;6.60;100.00;95273.25;5107928;28;19951;-88
2023/04/15 03:50:36;;;;;;;;;;;;;;;6.57;100.00;95273.72;5106691;28;19924;-87
2023/04/15 03:53:03;;;;;;;;;;;;;;;6.56;100.00;95274.75;5103369;28;20039;-87
2023/04/15 03:55:30;;;;;;;;;;;;;;;6.62;100.00;95273.03;5108381;28;19955;-88
2023/04/15 03:57:57;;;;;;;;;;;;;;;6.65;100.00;95272.56;5108088;28;19924;-87
2023/04/15 04:00:24;;;;;;;;;;;;;;;6.70;100.00;95268.13;5109465;28;19924;-88
2023/04/15 04:02:54;;;;;;;;;;;;;;;6.74;100.00;95263.94;5106420;28;19938;-87
2023/04/15 04:05:21;;;;;;;;;;;;;;;6.79;100.00;95268.63;5111552;28;19950;-88
2023/04/15 04:07:48;;;;;;;;;;;;;;;6.79;100.00;95266.75;5099970;28;19935;-88
2023/04/15 04:10:15;;;;;;;;;;;;;;;6.77;100.00;95266.16;5109272;28;19936;-88
2023/04/15 04:12:42;;;;;;;;;;;;;;;6.78;100.00;95267.78;5104931;28;19939;-87
2023/04/15 04:15:09;;;;;;;;;;;;;;;6.74;100.00;95274.66;5101851;28;19946;-87
2023/04/15 04:17:36;;;;;;;;;;;;;;;6.74;100.00;95269.28;5109704;28;19923;-87
2023/04/15 04:20:05;;;;;;;;;;;;;;;6.65;100.00;95270.69;5110549;28;19930;-87
2023/04/15 04:22:37;;;;;;;;;;;;;;;6.58;100.00;95278.03;5112520;28;19962;-87
2023/04/15 04:25:04;;;;;;;;;;;;;;;6.50;100.00;95282.91;5098436;28;19924;-87
2023/04/15 04:27:31;;;;;;;;;;;;;;;6.39;100.00;95276.47;5106876;28;19928;-87
2023/04/15 04:29:58;;;;;;;;;;;;;;;6.26;100.00;95274.00;5107451;28;19928;-88
2023/04/15 04:32:25;;;;;;;;;;;;;;;6.27;100.00;95283.69;5108907;28;19924;-89
2023/04/15 04:34:52;;;;;;;;;;;;;;;6.25;100.00;95278.56;5099075;28;19924;-89
2023/04/15 04:37:22;;;;;;;;;;;;;;;6.28;100.00;95275.41;5100593;28;19995;-88
2023/04/15 04:39:49;;;;;;;;;;;;;;;6.33;100.00;95272.03;5110750;28;19924;-88
2023/04/15 04:42:15;;;;;;;;;;;;;;;6.36;100.00;95276.94;5110902;28;20019;-88
2023/04/15 04:44:42;;;;;;;;;;;;;;;6.40;100.00;95278.13;5100039;28;19924;-88
2023/04/15 04:47:09;;;;;;;;;;;;;;;6.45;100.00;95272.88;5105057;28;19928;-88
2023/04/15 04:49:36;;;;;;;;;;;;;;;6.55;100.00;95281.16;5106264;28;19924;-88
2023/04/15 04:52:03;;;;;;;;;;;;;;;6.62;100.00;95271.16;5110164;28;19938;-88
2023/04/15 04:54:31;;;;;;;;;;;;;;;6.63;100.00;95272.81;5104147;28;19932;-87
2023/04/15 04:56:58;;;;;;;;;;;;;;;6.62;100.00;95271.16;5095898;28;19924;-88
2023/04/15 04:59:25;;;;;;;;;;;;;;;6.56;100.00;95272.06;5115647;28;19924;-88
2023/04/15 05:01:52;;;;;;;;;;;;;;;6.54;100.00;95273.38;5111032;28;19928;-89
2023/04/15 05:04:19;;;;;;;;;;;;;;;6.52;100.00;95272.78;5116449;28;19924;-88
2023/04/15 05:06:46;;;;;;;;;;;;;;;6.47;100.00;95271.59;5114350;28;19924;-88
2023/04/15 05:09:13;;;;;;;;;;;;;;;6.50;100.00;95281.06;5115007;28;19924;-88
2023/04/15 05:11:41;;;;;;;;;;;;;;;6.53;100.00;95272.56;5115043;28;19955;-88
2023/04/15 05:14:08;;;;;;;;;;;;;;;6.60;100.00;95270.56;5110429;28;19924;-88
2023/04/15 05:16:35;;;;;;;;;;;;;;;6.75;100.00;95275.47;5113644;28;19924;-88
2023/04/15 05:19:02;;;;;;;;;;;;;;;6.93;100.00;95274.56;5114701;28;19951;-89
2023/04/15 05:21:30;;;;;;;;;;;;;;;7.05;100.00;95281.56;5110489;28;19962;-88
2023/04/15 05:23:56;;;;;;;;;;;;;;;7.10;100.00;95278.16;5113118;28;19923;-88
2023/04/15 05:26:23;;;;;;;;;;;;;;;7.08;100.00;95280.25;5115900;28;19973;-90
2023/04/15 05:28:51;;;;;;;;;;;;;;;7.01;100.00;95283.06;5114476;28;19924;-88
2023/04/15 05:31:18;;;;;;;;;;;;;;;7.05;100.00;95280.75;5111793;28;19928;-88
2023/04/15 05:33:45;;;;;;;;;;;;;;;7.04;100.00;95290.66;5113939;28;19973;-87
2023/04/15 05:36:12;;;;;;;;;;;;;;;7.00;100.00;95285.97;5111645;28;19952;-88
2023/04/15 05:38:39;;;;;;;;;;;;;;;6.97;100.00;95294.53;5112453;28;20018;-87
2023/04/15 05:41:06;;;;;;;;;;;;;;;6.86;100.00;95290.78;5105558;28;19931;-87
2023/04/15 05:43:32;;;;;;;;;;;;;;;6.82;100.00;95295.78;5113570;28;19979;-88
2023/04/15 05:46:01;;;;;;;;;;;;;;;6.87;100.00;95295.09;5112076;28;19949;-88
2023/04/15 05:48:27;;;;;;;;;;;;;;;6.95;100.00;95301.97;5112892;28;19924;-87
2023/04/15 05:50:54;;;;;;;;;;;;;;;7.02;100.00;95306.19;5096974;28;19924;-88
2023/04/15 05:53:21;;;;;;;;;;;;;;;7.09;100.00;95311.41;5114638;28;20014;-88
2023/04/15 05:55:48;;;;;;;;;;;;;;;7.14;100.00;95307.00;5104926;28;19977;-88
2023/04/15 05:58:15;;;;;;;;;;;;;;;7.19;100.00;95306.28;5107285;27;19966;-87
2023/04/15 06:00:42;;;;;;;;;;;;;;;7.26;99.83;95316.91;5112945;28;19923;-87
2023/04/15 06:03:11;;;;;;;;;;;;;;;7.28;100.00;95326.38;5112837;28;19924;-87
2023/04/15 06:05:37;;;;;;;;;;;;;;;7.27;100.00;95319.34;5104841;28;19963;-87
2023/04/15 06:08:04;;;;;;;;;;;;;;;7.18;100.00;95332.31;5108108;28;19924;-88
2023/04/15 06:10:35;;;;;;;;;;;;;;;7.11;100.00;95339.69;5102604;28;19924;-85
2023/04/15 06:13:02;;;;;;;;;;;;;;;7.03;100.00;95331.97;5108529;28;19924;-85
2023/04/15 06:15:28;;;;;;;;;;;;;;;6.93;100.00;95336.28;5096374;28;19924;-86
2023/04/15 06:17:55;;;;;;;;;;;;;;;6.96;100.00;95325.09;5095943;28;19924;-86
2023/04/15 06:20:24;;;;;;;;;;;;;;;7.00;100.00;95334.28;5110517;28;19934;-87
2023/04/15 06:22:51;;;;;;;;;;;;;;;7.02;100.00;95329.50;5109556;28;19962;-86
2023/04/15 06:25:18;;;;;;;;;;;;;;;6.95;100.00;95336.88;5104469;28;19927;-86
2023/04/15 06:27:45;;;;;;;;;;;;;;;6.97;100.00;95337.47;5101124;28;19931;-86
2023/04/15 06:30:12;;;;;;;;;;;;;;;6.88;100.00;95339.66;5109452;27;19931;-86
2023/04/15 06:32:39;;;;;;;;;;;;;;;6.79;100.00;95339.19;5111174;28;19924;-86
2023/04/15 06:35:06;;;;;;;;;;;;;;;6.66;100.00;95344.75;5107750;28;19935;-85
2023/04/15 06:37:34;;;;;;;;;;;;;;;6.71;100.00;95339.53;5105378;28;19928;-86
2023/04/15 06:40:01;;;;;;;;;;;;;;;6.76;100.00;95336.94;5096472;28;19924;-86
2023/04/15 06:42:28;;;;;;;;;;;;;;;6.81;100.00;95339.75;5106931;28;19996;-85
2023/04/15 06:44:55;;;;;;;;;;;;;;;6.81;100.00;95329.00;5096620;28;19996;-85
2023/04/15 06:47:21;;;;;;;;;;;;;;;6.84;100.00;95339.28;5109665;28;19931;-85
2023/04/15 06:49:48;;;;;;;;;;;;;;;6.87;100.00;95332.66;5106941;28;19927;-86
2023/04/15 06:52:15;;;;;;;;;;;;;;;6.87;100.00;95338.03;5105987;28;19969;-85
2023/04/15 06:54:43;;;;;;;;;;;;;;;6.89;100.00;95343.16;5095470;28;19927;-86
2023/04/15 06:57:10;;;;;;;;;;;;;;;6.93;100.00;95341.63;5108102;28;19924;-85
2023/04/15 06:59:37;;;;;;;;;;;;;;;6.87;100.00;95342.56;5103288;28;20007;-86
2023/04/15 07:02:03;;;;;;;;;;;;;;;6.82;100.00;95335.19;5105034;28;19928;-86
2023/04/15 07:04:31;;;;;;;;;;;;;;;6.86;100.00;95339.06;5105251;28;19924;-86
2023/04/15 07:07:01;;;;;;;;;;;;;;;6.92;100.00;95340.81;5109261;28;19976;-86
2023/04/15 07:09:28;;;;;;;;;;;;;;;6.99;100.00;95332.66;5096207;28;20022;-86
2023/04/15 07:11:56;;;;;;;;;;;;;;;6.94;100.00;95338.72;5106312;28;19932;-85
2023/04/15 07:14:23;;;;;;;;;;;;;;;6.99;100.00;95340.69;5106136;28;19946;-86
2023/04/15 07:16:50;;;;;;;;;;;;;;;6.98;100.00;95331.00;5104736;28;19930;-86
2023/04/15 07:19:17;;;;;;;;;;;;;;;6.95;100.00;95334.19;5110258;28;19925;-86
2023/04/15 07:21:43;;;;;;;;;;;;;;;6.97;100.00;95329.41;5108187;28;19924;-85
2023/04/15 07:24:10;;;;;;;;;;;;;;;6.91;100.00;95333.81;5106302;28;19971;-85
2023/04/15 07:26:37;;;;;;;;;;;;;;;6.92;100.00;95331.94;5106534;28;19991;-86
2023/04/15 07:29:06;;;;;;;;;;;;;;;6.89;100.00;95327.84;5103562;28;19928;-86
2023/04/15 07:31:32;;;;;;;;;;;;;;;6.93;100.00;95323.69;5107178;28;19924;-86
2023/04/15 07:33:59;;;;;;;;;;;;;;;6.91;100.00;95328.44;5107570;28;19928;-85
2023/04/15 07:36:26;;;;;;;;;;;;;;;6.94;100.00;95321.81;5109496;28;20019;-86
2023/04/15 07:38:54;;;;;;;;;;;;;;;6.99;100.00;95319.22;5110816;28;19924;-86
2023/04/15 07:41:21;;;;;;;;;;;;;;;7.09;100.00;95320.28;5103995;28;20000;-86
2023/04/15 07:43:48;;;;;;;;;;;;;;;7.02;100.00;95318.78;5110329;28;19981;-85
2023/04/15 07:46:17;;;;;;;;;;;;;;;7.22;100.00;95320.06;5110895;28;19924;-87
2023/04/15 07:48:43;;;;;;;;;;;;;;;7.21;100.00;95318.44;5094874;28;19924;-86
2023/04/15 07:51:11;;;;;;;;;;;;;;;7.23;100.00;95323.53;5096711;28;19924;-86
2023/04/15 07:53:38;;;;;;;;;;;;;;;7.31;100.00;95323.22;5104978;28;19924;-86
2023/04/15 07:56:05;;;;;;;;;;;;;;;7.24;100.00;95322.50;5109697;28;19928;-87
2023/04/15 07:58:32;;;;;;;;;;;;;;;7.07;100.00;95321.56;5106568;28;19928;-86
2023/04/15 08:00:59;;;;;;;;;;;;;;;7.07;100.00;95324.25;5104555;28;19925;-85
2023/04/15 08:03:27;;;;;;;;;;;;;;;7.02;100.00;95321.47;5107638;28;19931;-85
2023/04/15 08:05:54;;;;;;;;;;;;;;;7.05;100.00;95323.69;5108433;28;19928;-86
2023/04/15 08:08:21;;;;;;;;;;;;;;;7.05;100.00;95318.31;5109735;28;19924;-86
2023/04/15 08:10:47;;;;;;;;;;;;;;;7.11;100.00;95318.19;5107586;28;20030;-85
2023/04/15 08:13:15;;;;;;;;;;;;;;;7.04;100.00;95320.19;5103620;28;19932;-86
2023/04/15 08:15:42;;;;;;;;;;;;;;;7.16;100.00;95318.31;5099188;28;19931;-86
2023/04/15 08:18:08;;;;;;;;;;;;;;;7.12;100.00;95322.53;5108110;28;19928;-87
2023/04/15 08:20:37;;;;;;;;;;;;;;;7.16;100.00;95314.81;5102601;28;19928;-86
2023/04/15 08:23:04;;;;;;;;;;;;;;;7.23;100.00;95323.53;5104703;28;19927;-85
2023/04/15 08:25:31;;;;;;;;;;;;;;;7.37;100.00;95326.81;5108049;28;19924;-85
2023/04/15 08:27:58;;;;;;;;;;;;;;;7.46;100.00;95315.50;5101622;28;19935;-86
2023/04/15 08:30:24;;;;;;;;;;;;;;;7.57;100.00;95314.63;5115061;28;19928;-86
2023/04/15 08:32:51;;;;;;;;;;;;;;;7.60;100.00;95322.22;5114904;28;19923;-91
2023/04/15 08:35:18;;;;;;;;;;;;;;;7.63;100.00;95314.75;5104160;28;19943;-92
2023/04/15 08:37:46;;;;;;;;;;;;;;;7.64;100.00;95321.78;5103425;28;19924;-91
2023/04/15 08:40:13;;;;;;;;;;;;;;;7.59;100.00;95312.53;5114653;28;19963;-91
2023/04/15 08:42:42;;;;;;;;;;;;;;;7.60;100.00;95307.97;5101671;28;19927;-91
2023/04/15 08:45:10;;;;;;;;;;;;;;;7.72;100.00;95310.66;5098627;28;19932;-90
2023/04/15 08:47:38;;;;;;;;;;;;;;;7.84;100.00;95306.88;5100727;28;19912;-91
2023/04/15 08:50:05;;;;;;;;;;;;;;;7.77;100.00;95310.75;5103768;28;19967;-91
2023/04/15 08:52:32;;;;;;;;;;;;;;;7.94;100.00;95298.19;5101368;28;19954;-90
2023/04/15 08:55:02;;;;;;;;;;;;;;;8.15;100.00;95308.28;5097532;28;19928;-88
2023/04/15 08:57:29;;;;;;;;;;;;;;;8.29;100.00;95298.03;5111576;28;19924;-90
2023/04/15 08:59:55;;;;;;;;;;;;;;;8.40;100.00;95301.78;5113529;28;19924;-91
2023/04/15 09:02:23;;;;;;;;;;;;;;;8.55;100.00;95302.03;5109185;28;19924;-90
2023/04/15 09:04:50;;;;;;;;;;;;;;;8.67;100.00;95294.72;5110484;28;19935;-90
2023/04/15 09:07:17;;;;;;;;;;;;;;;8.70;100.00;95299.59;5100686;28;19935;-91
2023/04/15 09:09:43;;;;;;;;;;;;;;;8.68;100.00;95297.13;5112858;28;19924;-93
2023/04/15 09:12:12;;;;;;;;;;;;;;;8.59;100.00;95297.81;5111079;28;20039;-91
2023/04/15 09:14:40;;;;;;;;;;;;;;;8.66;100.00;95298.47;5110006;28;19923;-90
2023/04/15 09:17:10;;;;;;;;;;;;;;;8.73;100.00;95293.72;5114223;28;19924;-89
2023/04/15 09:19:37;;;;;;;;;;;;;;;8.86;100.00;95301.47;5110089;28;19928;-90
2023/04/15 09:22:04;;;;;;;;;;;;;;;8.86;100.00;95304.16;5113066;28;20013;-91
2023/04/15 09:24:37;;;;;;;;;;;;;;;8.86;100.00;95303.34;5111579;28;19962;-90
2023/04/15 09:27:05;;;;;;;;;;;;;;;8.86;100.00;95293.41;5113575;28;19963;-90
2023/04/15 09:29:34;;;;;;;;;;;;;;;8.95;100.00;95300.00;5106778;28;19962;-89
2023/04/15 09:32:09;;;;;;;;;;;;;;;9.03;100.00;95304.97;5106318;28;19923;-91
2023/04/15 09:34:37;;;;;;;;;;;;;;;9.10;100.00;95305.63;5112025;28;19969;-89
2023/04/15 09:37:05;;;;;;;;;;;;;;;9.27;100.00;95307.50;5109453;28;19931;-92
2023/04/15 09:39:48;;;;;;;;;;;;;;;9.33;100.00;95306.50;5118663;27;19924;-90
2023/04/15 09:42:16;;;;;;;;;;;;;;;9.39;100.00;95290.16;5097276;28;19928;-89
2023/04/15 09:44:44;;;;;;;;;;;;;;;9.44;100.00;95303.69;5104612;28;19939;-91
2023/04/15 09:47:26;;;;;;;;;;;;;;;9.48;100.00;95304.84;5125279;27;19991;-91
2023/04/15 09:49:55;;;;;;;;;;;;;;;9.42;100.00;95307.72;5109551;28;19954;-92
2023/04/15 09:52:22;;;;;;;;;;;;;;;9.34;100.00;95308.13;5106765;28;19963;-88
2023/04/15 09:54:52;;;;;;;;;;;;;;;9.25;100.00;95310.44;5102382;28;19942;-90
2023/04/15 09:57:20;;;;;;;;;;;;;;;9.19;100.00;95315.97;5106136;28;19928;-90
2023/04/15 09:59:50;;;;;;;;;;;;;;;9.19;100.00;95308.72;5105597;28;19934;-91
2023/04/15 10:02:19;;;;;;;;;;;;;;;9.24;100.00;95305.28;5101244;28;19924;-88
2023/04/15 10:04:48;;;;;;;;;;;;;;;9.21;100.00;95306.59;5106584;27;19932;-90
2023/04/15 10:07:16;;;;;;;;;;;;;;;9.09;100.00;95314.78;5103211;28;19924;-92
2023/04/15 10:09:44;;;;;;;;;;;;;;;9.03;100.00;95313.06;5106534;28;19924;-91
2023/04/15 10:12:12;;;;;;;;;;;;;;;8.99;100.00;95313.81;5107108;28;20006;-90
2023/04/15 10:14:40;;;;;;;;;;;;;;;8.92;100.00;95308.59;5104814;28;19934;-91
2023/04/15 10:17:11;;;;;;;;;;;;;;;9.00;100.00;95312.75;5106685;27;19932;-89
2023/04/15 10:19:38;;;;;;;;;;;;;;;9.00;100.00;95305.50;5104371;28;19924;-89
2023/04/15 10:22:05;;;;;;;;;;;;;;;8.99;100.00;95320.00;5100368;28;19923;-89
2023/04/15 10:24:33;;;;;;;;;;;;;;;8.93;100.00;95315.56;5122469;27;19923;-90
2023/04/15 10:27:00;;;;;;;;;;;;;;;8.93;100.00;95320.19;5103290;28;19980;-89
2023/04/15 10:29:27;;;;;;;;;;;;;;;8.89;100.00;95321.72;5106474;28;19977;-90
2023/04/15 10:31:55;;;;;;;;;;;;;;;8.73;100.00;95329.53;5104692;28;19924;-88
2023/04/15 10:34:25;;;;;;;;;;;;;;;8.63;100.00;95323.97;5095099;28;19931;-90
2023/04/15 10:36:51;;;;;;;;;;;;;;;8.66;100.00;95330.75;5107889;28;19924;-90
2023/04/15 10:39:37;;;;;;;;;;;;;;;8.59;100.00;95333.56;5104402;28;19930;-90
2023/04/15 10:42:08;;;;;;;;;;;;;;;8.54;100.00;95328.13;5125169;27;19932;-90
2023/04/15 10:44:36;;;;;;;;;;;;;;;8.48;100.00;95330.97;5099356;28;19932;-89
2023/04/15 10:47:05;;;;;;;;;;;;;;;8.35;100.00;95340.94;5098882;28;19932;-89
2023/04/15 10:49:33;;;;;;;;;;;;;;;8.33;100.00;95337.72;5126609;27;19924;-90
2023/04/15 10:52:03;;;;;;;;;;;;;;;8.33;100.00;95340.41;5107936;28;19931;-90
2023/04/15 10:54:35;;;;;;;;;;;;;;;8.36;100.00;95344.47;5104759;28;19928;-92
2023/04/15 10:57:09;;;;;;;;;;;;;;;8.29;100.00;95338.38;5097109;28;20010;-92
2023/04/15 10:59:37;;;;;;;;;;;;;;;8.30;100.00;95345.41;5108826;28;19969;-89
2023/04/15 11:02:05;;;;;;;;;;;;;;;8.32;100.00;95346.84;5110932;28;19923;-89
2023/04/15 11:04:50;;;;;;;;;;;;;;;8.30;100.00;95346.22;5107007;28;19950;-91
2023/04/15 11:07:32;;;;;;;;;;;;;;;8.25;100.00;95351.47;5095972;28;19931;-91
2023/04/15 11:10:01;;;;;;;;;;;;;;;8.32;100.00;95349.53;5109446;28;19971;-91
2023/04/15 11:12:33;;;;;;;;;;;;;;;8.41;100.00;95358.03;5092213;28;19981;-90
2023/04/15 11:15:00;;;;;;;;;;;;;;;8.34;100.00;95360.00;5101700;28;20019;-91
2023/04/15 11:17:28;;;;;;;;;;;;;;;8.45;100.00;95363.72;5107377;28;19923;-89
2023/04/15 11:19:55;;;;;;;;;;;;;;;8.46;100.00;95363.50;5109973;28;19967;-88
2023/04/15 11:22:21;;;;;;;;;;;;;;;8.40;100.00;95366.31;5101712;28;19924;-90
2023/04/15 11:24:49;;;;;;;;;;;;;;;8.40;100.00;95366.31;5105487;28;19990;-90
2023/04/15 11:27:22;;;;;;;;;;;;;;;8.34;100.00;95366.22;5098713;28;19935;-89
2023/04/15 11:29:49;;;;;;;;;;;;;;;8.44;100.00;95370.16;5090388;28;19924;-91
2023/04/15 11:32:16;;;;;;;;;;;;;;;8.42;100.00;95377.66;5110393;28;19962;-91
2023/04/15 11:34:45;;;;;;;;;;;;;;;8.43;100.00;95376.59;5110566;28;20026;-90
2023/04/15 11:37:12;;;;;;;;;;;;;;;8.50;100.00;95380.78;5110106;28;19932;-87
2023/04/15 11:39:39;;;;;;;;;;;;;;;8.46;100.00;95373.44;5105198;28;19927;-89
2023/04/15 11:42:16;;;;;;;;;;;;;;;8.48;100.00;95380.22;5101585;28;19932;-87
2023/04/15 11:44:44;;;;;;;;;;;;;;;8.51;100.00;95387.78;5105093;28;19934;-89
2023/04/15 11:47:22;;;;;;;;;;;;;;;8.50;100.00;95391.56;5105402;28;19928;-89
2023/04/15 11:49:48;;;;;;;;;;;;;;;8.49;100.00;95386.41;5108120;28;20015;-89
2023/04/15 11:52:15;;;;;;;;;;;;;;;8.42;100.00;95401.88;5105371;28;19939;-89
2023/04/15 11:54:42;;;;;;;;;;;;;;;8.34;100.00;95409.25;5112119;28;19924;-88
2023/04/15 11:57:09;;;;;;;;;;;;;;;8.35;100.00;95410.88;5109140;28;19924;-88
2023/04/15 11:59:41;;;;;;;;;;;;;;;8.33;100.00;95406.81;5105701;28;20031;-89
2023/04/15 12:02:13;;;;;;;;;;;;;;;8.31;100.00;95417.81;5108514;28;19924;-88
2023/04/15 12:04:40;;;;;;;;;;;;;;;8.34;100.00;95425.38;5109441;28;19924;-89
2023/04/15 12:07:07;;;;;;;;;;;;;;;8.26;100.00;95424.91;5111517;28;19934;-88
2023/04/15 12:09:37;;;;;;;;;;;;;;;8.20;100.00;95428.56;5103438;28;20007;-87
2023/04/15 12:12:04;;;;;;;;;;;;;;;8.14;100.00;95430.34;5101546;28;19959;-89
2023/04/15 12:14:31;;;;;;;;;;;;;;;8.16;100.00;95441.69;5106810;28;19928;-89
2023/04/15 12:17:00;;;;;;;;;;;;;;;8.08;100.00;95446.59;5109364;28;19992;-89
2023/04/15 12:19:29;;;;;;;;;;;;;;;7.91;100.00;95446.50;5106409;28;19950;-88
2023/04/15 12:21:58;;;;;;;;;;;;;;;7.90;100.00;95452.94;5109604;28;19926;-89
2023/04/15 12:24:25;;;;;;;;;;;;;;;7.87;100.00;95453.41;5105313;28;19927;-90
2023/04/15 12:26:53;;;;;;;;;;;;;;;7.82;100.00;95458.66;5108949;28;19997;-88
2023/04/15 12:29:20;;;;;;;;;;;;;;;7.85;100.00;95464.38;5106503;28;19945;-89
2023/04/15 12:31:47;;;;;;;;;;;;;;;7.80;100.00;95471.50;5125967;28;19928;-90
2023/04/15 12:34:14;;;;;;;;;;;;;;;7.74;100.00;95473.25;5110465;28;19931;-89
2023/04/15 12:36:43;;;;;;;;;;;;;;;7.67;100.00;95474.41;5108534;28;19924;-90
2023/04/15 12:39:09;;;;;;;;;;;;;;;7.69;100.00;95478.50;5111256;28;19928;-89
2023/04/15 12:41:36;;;;;;;;;;;;;;;7.60;100.00;95488.78;5110329;28;19946;-89
2023/04/15 12:44:03;;;;;;;;;;;;;;;7.67;100.00;95483.28;5111127;28;19928;-89
2023/04/15 12:46:30;;;;;;;;;;;;;;;7.68;100.00;95484.94;5110143;28;19971;-88
2023/04/15 12:48:56;;;;;;;;;;;;;;;7.80;100.00;95488.47;5097733;28;20038;-89
2023/04/15 12:51:23;;;;;;;;;;;;;;;7.80;100.00;95501.91;5107652;28;19972;-89